sensor_id;sensor_type;location;lat;lon;timestamp;P1;durP1;ratioP1;P2;durP2;ratioP2
43986;SDS011;29650;47.378;8.300;2023-03-01T14:25:22;21.85;;;10.98;;
43986;SDS011;29650;47.378;8.300;2023-03-01T14:27:54;21.85;;;11.20;;
43986;SDS011;29650;47.378;8.300;2023-03-01T14:30:41;24.08;;;10.20;;
43986;SDS011;29650;47.378;8.300;2023-03-01T14:33:20;21.23;;;9.18;;
43986;SDS011;29650;47.378;8.300;2023-03-01T14:35:56;23.58;;;10.45;;
43986;SDS011;29650;47.378;8.300;2023-03-01T14:38:29;30.63;;;12.20;;
43986;SDS011;29650;47.378;8.300;2023-03-01T14:41:02;22.23;;;10.32;;
43986;SDS011;29650;47.378;8.300;2023-03-01T14:43:32;23.17;;;10.90;;
43986;SDS011;29650;47.378;8.300;2023-03-01T14:45:59;25.70;;;12.85;;
43986;SDS011;29650;47.378;8.300;2023-03-01T14:48:27;20.83;;;10.57;;
43986;SDS011;29650;47.378;8.300;2023-03-01T14:53:23;23.67;;;11.38;;
43986;SDS011;29650;47.378;8.300;2023-03-01T14:55:53;17.80;;;9.63;;
43986;SDS011;29650;47.378;8.300;2023-03-01T14:58:23;18.23;;;8.80;;
43986;SDS011;29650;47.378;8.300;2023-03-01T15:00:52;22.58;;;10.48;;
43986;SDS011;29650;47.378;8.300;2023-03-01T15:03:24;23.95;;;10.32;;
43986;SDS011;29650;47.378;8.300;2023-03-01T15:05:53;24.67;;;11.20;;
43986;SDS011;29650;47.378;8.300;2023-03-01T15:08:22;24.58;;;10.70;;
43986;SDS011;29650;47.378;8.300;2023-03-01T15:11:01;24.23;;;11.82;;
43986;SDS011;29650;47.378;8.300;2023-03-01T15:13:32;21.60;;;10.73;;
43986;SDS011;29650;47.378;8.300;2023-03-01T15:16:01;20.05;;;9.82;;
43986;SDS011;29650;47.378;8.300;2023-03-01T15:18:33;27.33;;;10.13;;
43986;SDS011;29650;47.378;8.300;2023-03-01T15:21:08;23.52;;;11.35;;
43986;SDS011;29650;47.378;8.300;2023-03-01T15:26:16;20.83;;;10.45;;
43986;SDS011;29650;47.378;8.300;2023-03-01T15:28:50;27.65;;;11.25;;
43986;SDS011;29650;47.378;8.300;2023-03-01T15:31:23;21.70;;;10.07;;
43986;SDS011;29650;47.378;8.300;2023-03-01T15:33:51;18.27;;;10.32;;
43986;SDS011;29650;47.378;8.300;2023-03-01T15:36:36;23.73;;;9.45;;
43986;SDS011;29650;47.378;8.300;2023-03-01T15:42:02;24.15;;;11.35;;
43986;SDS011;29650;47.378;8.300;2023-03-01T15:44:33;20.70;;;10.30;;
43986;SDS011;29650;47.378;8.300;2023-03-01T15:47:01;22.00;;;10.02;;
43986;SDS011;29650;47.378;8.300;2023-03-01T15:49:35;19.02;;;9.07;;
43986;SDS011;29650;47.378;8.300;2023-03-01T15:52:08;24.45;;;10.93;;
43986;SDS011;29650;47.378;8.300;2023-03-01T15:54:40;25.38;;;11.57;;
43986;SDS011;29650;47.378;8.300;2023-03-01T15:57:08;25.10;;;10.45;;
43986;SDS011;29650;47.378;8.300;2023-03-01T15:59:40;20.95;;;10.35;;
43986;SDS011;29650;47.378;8.300;2023-03-01T16:02:09;19.08;;;9.73;;
43986;SDS011;29650;47.378;8.300;2023-03-01T16:04:37;26.20;;;10.95;;
43986;SDS011;29650;47.378;8.300;2023-03-01T16:07:05;24.30;;;10.48;;
43986;SDS011;29650;47.378;8.300;2023-03-01T16:09:32;20.33;;;11.18;;
43986;SDS011;29650;47.378;8.300;2023-03-01T16:11:59;24.40;;;10.20;;
43986;SDS011;29650;47.378;8.300;2023-03-01T16:14:26;19.52;;;10.52;;
43986;SDS011;29650;47.378;8.300;2023-03-01T16:16:55;25.00;;;11.27;;
43986;SDS011;29650;47.378;8.300;2023-03-01T16:19:22;15.40;;;8.23;;
43986;SDS011;29650;47.378;8.300;2023-03-01T16:21:48;26.83;;;13.25;;
43986;SDS011;29650;47.378;8.300;2023-03-01T16:24:15;22.92;;;10.68;;
43986;SDS011;29650;47.378;8.300;2023-03-01T16:26:42;22.55;;;10.73;;
43986;SDS011;29650;47.378;8.300;2023-03-01T16:29:09;25.08;;;10.73;;
43986;SDS011;29650;47.378;8.300;2023-03-01T16:31:36;18.08;;;8.98;;
43986;SDS011;29650;47.378;8.300;2023-03-01T16:34:04;24.35;;;10.88;;
43986;SDS011;29650;47.378;8.300;2023-03-01T16:36:31;19.13;;;10.73;;
43986;SDS011;29650;47.378;8.300;2023-03-01T16:38:58;23.13;;;12.18;;
43986;SDS011;29650;47.378;8.300;2023-03-01T16:41:27;24.83;;;11.35;;
43986;SDS011;29650;47.378;8.300;2023-03-01T16:43:54;23.83;;;12.30;;
43986;SDS011;29650;47.378;8.300;2023-03-01T16:46:22;22.75;;;11.40;;
43986;SDS011;29650;47.378;8.300;2023-03-01T16:48:50;25.35;;;10.65;;
43986;SDS011;29650;47.378;8.300;2023-03-01T16:51:20;20.38;;;10.80;;
43986;SDS011;29650;47.378;8.300;2023-03-01T16:53:47;21.63;;;11.48;;
43986;SDS011;29650;47.378;8.300;2023-03-01T16:56:14;21.60;;;10.38;;
43986;SDS011;29650;47.378;8.300;2023-03-01T16:58:41;20.45;;;10.45;;
43986;SDS011;29650;47.378;8.300;2023-03-01T17:01:10;22.88;;;12.18;;
43986;SDS011;29650;47.378;8.300;2023-03-01T17:03:38;20.30;;;11.00;;
43986;SDS011;29650;47.378;8.300;2023-03-01T17:06:07;21.65;;;11.02;;
43986;SDS011;29650;47.378;8.300;2023-03-01T17:08:36;25.45;;;11.75;;
43986;SDS011;29650;47.378;8.300;2023-03-01T17:11:05;22.33;;;10.88;;
43986;SDS011;29650;47.378;8.300;2023-03-01T17:13:33;22.88;;;11.43;;
43986;SDS011;29650;47.378;8.300;2023-03-01T17:16:02;23.52;;;11.63;;
43986;SDS011;29650;47.378;8.300;2023-03-01T17:18:29;23.65;;;11.57;;
43986;SDS011;29650;47.378;8.300;2023-03-01T17:20:57;20.38;;;10.93;;
43986;SDS011;29650;47.378;8.300;2023-03-01T17:23:24;23.13;;;12.23;;
43986;SDS011;29650;47.378;8.300;2023-03-01T17:25:53;24.27;;;11.88;;
43986;SDS011;29650;47.378;8.300;2023-03-01T17:28:21;30.30;;;13.55;;
43986;SDS011;29650;47.378;8.300;2023-03-01T17:30:49;23.02;;;10.80;;
43986;SDS011;29650;47.378;8.300;2023-03-01T17:33:16;22.45;;;11.27;;
43986;SDS011;29650;47.378;8.300;2023-03-01T17:35:44;26.38;;;12.63;;
43986;SDS011;29650;47.378;8.300;2023-03-01T17:38:11;21.38;;;11.20;;
43986;SDS011;29650;47.378;8.300;2023-03-01T17:40:39;25.20;;;10.90;;
43986;SDS011;29650;47.378;8.300;2023-03-01T17:43:07;24.77;;;10.75;;
43986;SDS011;29650;47.378;8.300;2023-03-01T17:45:35;23.57;;;10.87;;
43986;SDS011;29650;47.378;8.300;2023-03-01T17:48:03;18.88;;;10.02;;
43986;SDS011;29650;47.378;8.300;2023-03-01T17:50:30;22.30;;;10.85;;
43986;SDS011;29650;47.378;8.300;2023-03-01T17:52:57;26.15;;;11.60;;
43986;SDS011;29650;47.378;8.300;2023-03-01T17:55:24;23.35;;;11.45;;
43986;SDS011;29650;47.378;8.300;2023-03-01T17:57:51;23.05;;;11.77;;
43986;SDS011;29650;47.378;8.300;2023-03-01T18:00:20;22.73;;;12.02;;
43986;SDS011;29650;47.378;8.300;2023-03-01T18:02:47;19.40;;;10.43;;
43986;SDS011;29650;47.378;8.300;2023-03-01T18:05:14;22.77;;;11.75;;
43986;SDS011;29650;47.378;8.300;2023-03-01T18:07:41;23.45;;;12.23;;
43986;SDS011;29650;47.378;8.300;2023-03-01T18:10:08;27.38;;;13.60;;
43986;SDS011;29650;47.378;8.300;2023-03-01T18:12:36;26.65;;;12.07;;
43986;SDS011;29650;47.378;8.300;2023-03-01T18:15:03;23.58;;;11.82;;
43986;SDS011;29650;47.378;8.300;2023-03-01T18:17:32;22.08;;;11.43;;
43986;SDS011;29650;47.378;8.300;2023-03-01T18:19:59;25.02;;;11.40;;
43986;SDS011;29650;47.378;8.300;2023-03-01T18:22:26;22.13;;;10.00;;
43986;SDS011;29650;47.378;8.300;2023-03-01T18:24:53;31.30;;;13.48;;
43986;SDS011;29650;47.378;8.300;2023-03-01T18:27:20;18.52;;;10.48;;
43986;SDS011;29650;47.378;8.300;2023-03-01T18:29:47;22.48;;;12.23;;
43986;SDS011;29650;47.378;8.300;2023-03-01T18:32:14;29.92;;;12.90;;
43986;SDS011;29650;47.378;8.300;2023-03-01T18:34:42;25.70;;;11.15;;
43986;SDS011;29650;47.378;8.300;2023-03-01T18:37:09;23.67;;;11.17;;
43986;SDS011;29650;47.378;8.300;2023-03-01T18:39:36;28.05;;;12.40;;
43986;SDS011;29650;47.378;8.300;2023-03-01T18:42:05;30.80;;;14.23;;
43986;SDS011;29650;47.378;8.300;2023-03-01T18:44:32;27.50;;;11.77;;
43986;SDS011;29650;47.378;8.300;2023-03-01T18:46:59;24.23;;;11.73;;
43986;SDS011;29650;47.378;8.300;2023-03-01T18:49:26;24.23;;;12.05;;
43986;SDS011;29650;47.378;8.300;2023-03-01T18:51:55;22.58;;;11.82;;
43986;SDS011;29650;47.378;8.300;2023-03-01T18:54:22;23.73;;;12.30;;
43986;SDS011;29650;47.378;8.300;2023-03-01T18:56:49;25.27;;;12.48;;
43986;SDS011;29650;47.378;8.300;2023-03-01T18:59:15;24.80;;;11.93;;
43986;SDS011;29650;47.378;8.300;2023-03-01T19:01:42;22.60;;;12.27;;
43986;SDS011;29650;47.378;8.300;2023-03-01T19:04:09;20.35;;;11.50;;
43986;SDS011;29650;47.378;8.300;2023-03-01T19:06:37;23.25;;;12.70;;
43986;SDS011;29650;47.378;8.300;2023-03-01T19:09:06;23.17;;;12.48;;
43986;SDS011;29650;47.378;8.300;2023-03-01T19:11:35;25.02;;;12.35;;
43986;SDS011;29650;47.378;8.300;2023-03-01T19:14:02;24.98;;;13.05;;
43986;SDS011;29650;47.378;8.300;2023-03-01T19:16:31;23.70;;;11.85;;
43986;SDS011;29650;47.378;8.300;2023-03-01T19:19:00;26.75;;;12.95;;
43986;SDS011;29650;47.378;8.300;2023-03-01T19:21:29;31.50;;;12.68;;
43986;SDS011;29650;47.378;8.300;2023-03-01T19:23:57;25.05;;;12.77;;
43986;SDS011;29650;47.378;8.300;2023-03-01T19:26:28;26.25;;;13.75;;
43986;SDS011;29650;47.378;8.300;2023-03-01T19:31:22;24.70;;;12.10;;
43986;SDS011;29650;47.378;8.300;2023-03-01T19:33:51;27.15;;;13.35;;
43986;SDS011;29650;47.378;8.300;2023-03-01T19:36:18;31.15;;;14.07;;
43986;SDS011;29650;47.378;8.300;2023-03-01T19:38:46;30.65;;;13.18;;
43986;SDS011;29650;47.378;8.300;2023-03-01T19:41:14;28.08;;;13.52;;
43986;SDS011;29650;47.378;8.300;2023-03-01T19:43:44;27.48;;;13.15;;
43986;SDS011;29650;47.378;8.300;2023-03-01T19:46:11;28.88;;;12.70;;
43986;SDS011;29650;47.378;8.300;2023-03-01T19:48:39;29.90;;;13.68;;
43986;SDS011;29650;47.378;8.300;2023-03-01T19:51:06;28.90;;;13.15;;
43986;SDS011;29650;47.378;8.300;2023-03-01T19:53:35;23.73;;;11.85;;
43986;SDS011;29650;47.378;8.300;2023-03-01T19:56:05;26.38;;;12.85;;
43986;SDS011;29650;47.378;8.300;2023-03-01T19:58:33;25.45;;;11.93;;
43986;SDS011;29650;47.378;8.300;2023-03-01T20:01:01;22.88;;;11.07;;
43986;SDS011;29650;47.378;8.300;2023-03-01T20:03:29;27.80;;;12.88;;
43986;SDS011;29650;47.378;8.300;2023-03-01T20:08:28;29.05;;;13.65;;
43986;SDS011;29650;47.378;8.300;2023-03-01T20:11:00;27.25;;;12.93;;
43986;SDS011;29650;47.378;8.300;2023-03-01T20:13:27;22.73;;;13.25;;
43986;SDS011;29650;47.378;8.300;2023-03-01T20:15:54;24.85;;;13.20;;
43986;SDS011;29650;47.378;8.300;2023-03-01T20:18:22;26.25;;;12.98;;
43986;SDS011;29650;47.378;8.300;2023-03-01T20:20:50;27.50;;;13.53;;
43986;SDS011;29650;47.378;8.300;2023-03-01T20:23:17;25.45;;;11.50;;
43986;SDS011;29650;47.378;8.300;2023-03-01T20:25:44;27.25;;;13.02;;
43986;SDS011;29650;47.378;8.300;2023-03-01T20:28:12;27.23;;;13.63;;
43986;SDS011;29650;47.378;8.300;2023-03-01T20:30:39;29.38;;;12.88;;
43986;SDS011;29650;47.378;8.300;2023-03-01T20:33:06;24.33;;;12.25;;
43986;SDS011;29650;47.378;8.300;2023-03-01T20:35:34;24.33;;;11.95;;
43986;SDS011;29650;47.378;8.300;2023-03-01T20:38:01;32.67;;;13.45;;
43986;SDS011;29650;47.378;8.300;2023-03-01T20:40:29;25.30;;;13.10;;
43986;SDS011;29650;47.378;8.300;2023-03-01T20:42:56;23.83;;;12.32;;
43986;SDS011;29650;47.378;8.300;2023-03-01T20:45:23;31.33;;;13.75;;
43986;SDS011;29650;47.378;8.300;2023-03-01T20:47:51;26.80;;;12.23;;
43986;SDS011;29650;47.378;8.300;2023-03-01T20:50:18;26.75;;;13.38;;
43986;SDS011;29650;47.378;8.300;2023-03-01T20:52:46;31.65;;;14.13;;
43986;SDS011;29650;47.378;8.300;2023-03-01T20:55:13;30.80;;;13.05;;
43986;SDS011;29650;47.378;8.300;2023-03-01T20:57:40;27.85;;;13.13;;
43986;SDS011;29650;47.378;8.300;2023-03-01T21:00:08;30.67;;;13.40;;
43986;SDS011;29650;47.378;8.300;2023-03-01T21:02:35;25.73;;;13.55;;
43986;SDS011;29650;47.378;8.300;2023-03-01T21:05:03;29.77;;;13.82;;
43986;SDS011;29650;47.378;8.300;2023-03-01T21:07:30;31.63;;;14.52;;
43986;SDS011;29650;47.378;8.300;2023-03-01T21:09:59;29.25;;;13.30;;
43986;SDS011;29650;47.378;8.300;2023-03-01T21:12:26;28.40;;;12.35;;
43986;SDS011;29650;47.378;8.300;2023-03-01T21:14:53;33.38;;;14.68;;
43986;SDS011;29650;47.378;8.300;2023-03-01T21:17:19;28.38;;;13.55;;
43986;SDS011;29650;47.378;8.300;2023-03-01T21:19:46;27.48;;;12.95;;
43986;SDS011;29650;47.378;8.300;2023-03-01T21:22:15;27.58;;;13.55;;
43986;SDS011;29650;47.378;8.300;2023-03-01T21:24:42;29.48;;;14.30;;
43986;SDS011;29650;47.378;8.300;2023-03-01T21:27:10;25.02;;;12.48;;
43986;SDS011;29650;47.378;8.300;2023-03-01T21:29:38;29.00;;;14.27;;
43986;SDS011;29650;47.378;8.300;2023-03-01T21:32:06;20.97;;;10.17;;
43986;SDS011;29650;47.378;8.300;2023-03-01T21:34:34;25.55;;;12.98;;
43986;SDS011;29650;47.378;8.300;2023-03-01T21:37:02;23.20;;;12.95;;
43986;SDS011;29650;47.378;8.300;2023-03-01T21:39:29;33.10;;;13.43;;
43986;SDS011;29650;47.378;8.300;2023-03-01T21:41:57;27.95;;;13.77;;
43986;SDS011;29650;47.378;8.300;2023-03-01T21:44:27;30.27;;;13.70;;
43986;SDS011;29650;47.378;8.300;2023-03-01T21:46:55;27.83;;;14.32;;
43986;SDS011;29650;47.378;8.300;2023-03-01T21:49:23;26.70;;;11.77;;
43986;SDS011;29650;47.378;8.300;2023-03-01T21:51:50;28.98;;;14.32;;
43986;SDS011;29650;47.378;8.300;2023-03-01T21:54:17;28.73;;;13.25;;
43986;SDS011;29650;47.378;8.300;2023-03-01T21:56:45;27.25;;;13.07;;
43986;SDS011;29650;47.378;8.300;2023-03-01T21:59:14;27.83;;;13.85;;
43986;SDS011;29650;47.378;8.300;2023-03-01T22:01:43;27.20;;;13.98;;
43986;SDS011;29650;47.378;8.300;2023-03-01T22:04:10;28.03;;;13.17;;
43986;SDS011;29650;47.378;8.300;2023-03-01T22:06:38;27.35;;;14.13;;
43986;SDS011;29650;47.378;8.300;2023-03-01T22:09:07;26.27;;;13.57;;
43986;SDS011;29650;47.378;8.300;2023-03-01T22:11:37;27.40;;;13.05;;
43986;SDS011;29650;47.378;8.300;2023-03-01T22:14:05;31.90;;;14.63;;
43986;SDS011;29650;47.378;8.300;2023-03-01T22:16:33;28.42;;;13.45;;
43986;SDS011;29650;47.378;8.300;2023-03-01T22:19:02;25.67;;;12.57;;
43986;SDS011;29650;47.378;8.300;2023-03-01T22:21:31;26.52;;;13.52;;
43986;SDS011;29650;47.378;8.300;2023-03-01T22:23:58;29.60;;;13.23;;
43986;SDS011;29650;47.378;8.300;2023-03-01T22:26:25;29.63;;;13.48;;
43986;SDS011;29650;47.378;8.300;2023-03-01T22:28:54;28.35;;;13.55;;
43986;SDS011;29650;47.378;8.300;2023-03-01T22:31:23;30.00;;;14.95;;
43986;SDS011;29650;47.378;8.300;2023-03-01T22:33:50;29.05;;;13.55;;
43986;SDS011;29650;47.378;8.300;2023-03-01T22:36:19;30.23;;;13.68;;
43986;SDS011;29650;47.378;8.300;2023-03-01T22:38:46;31.00;;;14.38;;
43986;SDS011;29650;47.378;8.300;2023-03-01T22:41:13;25.92;;;12.07;;
43986;SDS011;29650;47.378;8.300;2023-03-01T22:43:40;27.75;;;13.23;;
43986;SDS011;29650;47.378;8.300;2023-03-01T22:46:08;27.00;;;13.20;;
43986;SDS011;29650;47.378;8.300;2023-03-01T22:48:36;31.57;;;14.70;;
43986;SDS011;29650;47.378;8.300;2023-03-01T22:51:03;26.70;;;13.07;;
43986;SDS011;29650;47.378;8.300;2023-03-01T22:53:31;33.13;;;13.75;;
43986;SDS011;29650;47.378;8.300;2023-03-01T22:55:58;30.60;;;14.57;;
43986;SDS011;29650;47.378;8.300;2023-03-01T22:58:36;25.83;;;12.98;;
43986;SDS011;29650;47.378;8.300;2023-03-01T23:01:07;29.95;;;14.43;;
43986;SDS011;29650;47.378;8.300;2023-03-01T23:03:35;28.13;;;14.02;;
43986;SDS011;29650;47.378;8.300;2023-03-01T23:06:02;25.77;;;14.48;;
43986;SDS011;29650;47.378;8.300;2023-03-01T23:08:29;29.60;;;14.68;;
43986;SDS011;29650;47.378;8.300;2023-03-01T23:10:57;26.75;;;13.18;;
43986;SDS011;29650;47.378;8.300;2023-03-01T23:13:24;27.73;;;13.80;;
43986;SDS011;29650;47.378;8.300;2023-03-01T23:15:52;30.58;;;15.02;;
43986;SDS011;29650;47.378;8.300;2023-03-01T23:18:19;28.90;;;14.82;;
43986;SDS011;29650;47.378;8.300;2023-03-01T23:20:46;32.28;;;14.40;;
43986;SDS011;29650;47.378;8.300;2023-03-01T23:23:13;31.05;;;13.48;;
43986;SDS011;29650;47.378;8.300;2023-03-01T23:25:50;30.08;;;13.95;;
43986;SDS011;29650;47.378;8.300;2023-03-01T23:28:18;29.73;;;14.82;;
43986;SDS011;29650;47.378;8.300;2023-03-01T23:30:51;33.50;;;15.50;;
43986;SDS011;29650;47.378;8.300;2023-03-01T23:33:19;30.95;;;14.52;;
43986;SDS011;29650;47.378;8.300;2023-03-01T23:35:46;30.27;;;14.02;;
43986;SDS011;29650;47.378;8.300;2023-03-01T23:38:13;27.90;;;12.88;;
43986;SDS011;29650;47.378;8.300;2023-03-01T23:40:41;26.45;;;13.93;;
43986;SDS011;29650;47.378;8.300;2023-03-01T23:43:08;25.98;;;12.70;;
43986;SDS011;29650;47.378;8.300;2023-03-01T23:45:36;31.35;;;15.30;;
43986;SDS011;29650;47.378;8.300;2023-03-01T23:48:08;23.17;;;12.05;;
43986;SDS011;29650;47.378;8.300;2023-03-01T23:50:36;30.00;;;14.05;;
43986;SDS011;29650;47.378;8.300;2023-03-01T23:53:06;34.80;;;14.23;;
43986;SDS011;29650;47.378;8.300;2023-03-01T23:55:34;28.95;;;13.35;;
43986;SDS011;29650;47.378;8.300;2023-03-01T23:58:05;30.63;;;13.73;;
